Time;durP1;ratioP1;P1;durP2;ratioP2;P2;SDS_P1;SDS_P2;PMS_P1;PMS_P2;Temp;Humidity;BMP_temperature;BMP_pressure;BME280_temperature;BME280_humidity;BME280_pressure;Samples;Min_cycle;Max_cycle;Signal;HPM_P1;HPM_P2
2022/04/24 00:00:09;;;;;;;;;;;15.20;69.20;;;;;;5041250;28;19918;-57
2022/04/24 00:02:34;;;;;;;;;;;15.20;69.20;;;;;;5041164;28;19897;-58
2022/04/24 00:05:00;;;;;;;;;;;15.10;69.80;;;;;;5041126;28;19919;-57
2022/04/24 00:07:26;;;;;;;;;;;15.10;71.00;;;;;;5041199;28;19914;-57
2022/04/24 00:09:51;;;;;;;;;;;15.10;70.40;;;;;;5040968;28;19961;-56
2022/04/24 00:12:18;;;;;;;;;;;15.10;70.90;;;;;;5040991;28;19902;-57
2022/04/24 00:14:46;;;;;;;;;;;15.10;71.50;;;;;;5041040;28;19912;-56
2022/04/24 00:17:12;;;;;;;;;;;15.10;72.10;;;;;;5040940;28;19904;-56
2022/04/24 00:19:38;;;;;;;;;;;15.00;72.10;;;;;;5040814;28;19902;-56
2022/04/24 00:22:03;;;;;;;;;;;15.10;71.60;;;;;;5040694;28;19933;-56
2022/04/24 00:24:29;;;;;;;;;;;15.10;71.80;;;;;;5040988;28;19940;-56
2022/04/24 00:26:54;;;;;;;;;;;15.00;72.80;;;;;;5040867;28;19897;-56
2022/04/24 00:29:23;;;;;;;;;;;15.00;73.90;;;;;;5040817;28;19961;-57
2022/04/24 00:31:48;;;;;;;;;;;15.00;72.70;;;;;;5040839;28;19925;-55
2022/04/24 00:34:14;;;;;;;;;;;15.00;72.00;;;;;;5040534;28;19989;-56
2022/04/24 00:36:40;;;;;;;;;;;15.00;71.90;;;;;;5040611;28;19905;-57
2022/04/24 00:39:05;;;;;;;;;;;15.00;71.60;;;;;;5040573;28;19916;-58
2022/04/24 00:41:31;;;;;;;;;;;15.00;71.90;;;;;;5040436;28;19898;-56
2022/04/24 00:43:56;;;;;;;;;;;15.10;71.40;;;;;;5040623;28;19905;-57
2022/04/24 00:46:25;;;;;;;;;;;15.20;71.20;;;;;;5040437;28;19905;-58
2022/04/24 00:48:51;;;;;;;;;;;15.20;70.80;;;;;;5040421;28;19920;-57
2022/04/24 00:51:16;;;;;;;;;;;15.10;71.80;;;;;;5040258;28;19898;-57
2022/04/24 00:53:42;;;;;;;;;;;15.10;71.40;;;;;;5040412;28;19907;-57
2022/04/24 00:56:07;;;;;;;;;;;15.20;71.60;;;;;;5040282;28;19905;-57
2022/04/24 00:58:33;;;;;;;;;;;15.20;71.50;;;;;;5040323;28;19932;-57
2022/04/24 01:01:00;;;;;;;;;;;15.20;71.70;;;;;;5040276;28;19898;-57
2022/04/24 01:03:26;;;;;;;;;;;15.20;72.00;;;;;;5040024;28;19977;-56
2022/04/24 01:05:52;;;;;;;;;;;15.20;72.50;;;;;;5040201;28;19902;-57
2022/04/24 01:08:18;;;;;;;;;;;15.30;72.40;;;;;;5040114;28;19940;-58
2022/04/24 01:10:43;;;;;;;;;;;15.20;72.40;;;;;;5040076;28;19898;-57
2022/04/24 01:13:10;;;;;;;;;;;15.30;72.10;;;;;;5039844;28;19989;-57
2022/04/24 01:15:35;;;;;;;;;;;15.20;72.30;;;;;;5039763;28;19963;-55
2022/04/24 01:18:01;;;;;;;;;;;15.20;73.00;;;;;;5039872;28;19928;-58
2022/04/24 01:20:27;;;;;;;;;;;15.10;73.40;;;;;;5039707;28;19964;-58
2022/04/24 01:22:53;;;;;;;;;;;15.20;73.30;;;;;;5039649;28;19910;-56
2022/04/24 01:25:18;;;;;;;;;;;15.20;73.60;;;;;;5039727;28;19897;-57
2022/04/24 01:27:44;;;;;;;;;;;15.30;73.70;;;;;;5039812;28;19904;-56
2022/04/24 01:30:10;;;;;;;;;;;15.20;74.40;;;;;;5039592;28;19924;-57
2022/04/24 01:32:35;;;;;;;;;;;15.20;74.50;;;;;;5039579;28;19909;-56
2022/04/24 01:35:01;;;;;;;;;;;15.30;74.50;;;;;;5039555;28;19916;-57
2022/04/24 01:37:27;;;;;;;;;;;15.30;74.60;;;;;;5039704;28;19961;-57
2022/04/24 01:39:53;;;;;;;;;;;15.30;74.80;;;;;;5039546;28;19901;-56
2022/04/24 01:42:18;;;;;;;;;;;15.40;75.10;;;;;;5039344;28;19920;-57
2022/04/24 01:44:44;;;;;;;;;;;15.30;75.10;;;;;;5039561;28;19918;-56
2022/04/24 01:47:10;;;;;;;;;;;15.30;75.20;;;;;;5039489;28;19904;-56
2022/04/24 01:49:35;;;;;;;;;;;15.30;75.20;;;;;;5039476;28;19906;-56
2022/04/24 01:52:01;;;;;;;;;;;15.30;75.60;;;;;;5039308;28;19902;-57
2022/04/24 01:54:26;;;;;;;;;;;15.30;75.80;;;;;;5039299;28;19929;-58
2022/04/24 01:56:52;;;;;;;;;;;15.20;75.90;;;;;;5039248;28;19902;-57
2022/04/24 01:59:18;;;;;;;;;;;15.30;75.80;;;;;;5039188;28;19917;-57
2022/04/24 02:01:43;;;;;;;;;;;15.30;75.70;;;;;;5041415;28;19905;-57
2022/04/24 02:04:09;;;;;;;;;;;15.20;76.20;;;;;;5045832;28;19965;-57
2022/04/24 02:06:35;;;;;;;;;;;15.10;76.70;;;;;;5045787;28;19937;-58
2022/04/24 02:09:00;;;;;;;;;;;15.10;76.60;;;;;;5045921;28;19897;-58
2022/04/24 02:11:26;;;;;;;;;;;15.20;76.70;;;;;;5045775;28;19960;-56
2022/04/24 02:13:51;;;;;;;;;;;15.20;76.60;;;;;;5045228;28;19912;-57
2022/04/24 02:16:17;;;;;;;;;;;15.30;76.50;;;;;;5045590;28;19905;-56
2022/04/24 02:18:42;;;;;;;;;;;15.20;76.70;;;;;;5045834;28;19902;-57
2022/04/24 02:21:10;;;;;;;;;;;15.20;76.90;;;;;;5045849;28;19943;-58
2022/04/24 02:23:35;;;;;;;;;;;15.20;77.20;;;;;;5045651;28;20005;-56
2022/04/24 02:26:01;;;;;;;;;;;15.30;77.10;;;;;;5045705;28;19897;-59
2022/04/24 02:28:26;;;;;;;;;;;15.20;77.30;;;;;;5045650;28;19898;-56
2022/04/24 02:30:52;;;;;;;;;;;15.20;77.60;;;;;;5045550;28;19956;-57
2022/04/24 02:33:18;;;;;;;;;;;15.30;77.60;;;;;;5045551;28;19909;-57
2022/04/24 02:35:43;;;;;;;;;;;15.20;77.70;;;;;;5045532;28;19916;-58
2022/04/24 02:38:09;;;;;;;;;;;15.20;78.10;;;;;;5045690;28;19926;-57
2022/04/24 02:40:34;;;;;;;;;;;15.20;78.30;;;;;;5045570;28;19961;-57
2022/04/24 02:43:00;;;;;;;;;;;15.20;78.50;;;;;;5045429;28;19898;-57
2022/04/24 02:45:26;;;;;;;;;;;15.20;78.40;;;;;;5045412;28;19913;-57
2022/04/24 02:47:51;;;;;;;;;;;15.20;78.30;;;;;;5045539;28;19937;-57
2022/04/24 02:50:17;;;;;;;;;;;15.10;78.70;;;;;;5045466;28;19964;-58
2022/04/24 02:52:45;;;;;;;;;;;15.10;78.70;;;;;;5045376;28;19925;-56
2022/04/24 02:55:12;;;;;;;;;;;15.10;79.00;;;;;;5045541;28;19933;-57
2022/04/24 02:57:38;;;;;;;;;;;15.10;79.10;;;;;;5045418;28;19897;-57
2022/04/24 03:00:04;;;;;;;;;;;15.10;79.20;;;;;;5045392;28;19955;-56
2022/04/24 03:02:29;;;;;;;;;;;15.20;79.30;;;;;;5045339;28;19918;-57
2022/04/24 03:04:55;;;;;;;;;;;15.30;78.90;;;;;;5045516;28;19914;-56
2022/04/24 03:07:20;;;;;;;;;;;15.20;78.90;;;;;;5045483;28;19898;-57
2022/04/24 03:09:46;;;;;;;;;;;15.20;78.90;;;;;;5045383;28;19897;-57
2022/04/24 03:12:12;;;;;;;;;;;15.20;79.20;;;;;;5045303;28;19904;-57
2022/04/24 03:14:37;;;;;;;;;;;15.20;79.50;;;;;;5041059;28;19912;-57
2022/04/24 03:17:03;;;;;;;;;;;15.20;79.40;;;;;;5042164;28;19901;-59
2022/04/24 03:19:28;;;;;;;;;;;15.10;79.70;;;;;;5042133;28;19898;-57
2022/04/24 03:21:54;;;;;;;;;;;15.10;79.90;;;;;;5041915;28;19910;-56
2022/04/24 03:24:19;;;;;;;;;;;15.10;80.10;;;;;;5042084;28;19920;-56
2022/04/24 03:26:45;;;;;;;;;;;15.10;80.00;;;;;;5041971;28;19905;-57
2022/04/24 03:29:10;;;;;;;;;;;15.10;79.60;;;;;;5041775;28;19956;-57
2022/04/24 03:31:36;;;;;;;;;;;15.10;79.40;;;;;;5041898;28;19898;-57
2022/04/24 03:34:02;;;;;;;;;;;15.20;79.50;;;;;;5041854;28;19902;-58
2022/04/24 03:36:27;;;;;;;;;;;15.20;79.40;;;;;;5041872;28;19952;-56
2022/04/24 03:38:53;;;;;;;;;;;15.20;79.30;;;;;;5041744;28;19897;-56
2022/04/24 03:41:18;;;;;;;;;;;15.20;79.20;;;;;;5041720;28;19913;-56
2022/04/24 03:43:44;;;;;;;;;;;15.20;78.80;;;;;;5041676;28;19909;-55
2022/04/24 03:46:10;;;;;;;;;;;15.20;78.60;;;;;;5041596;28;19968;-58
2022/04/24 03:48:36;;;;;;;;;;;15.20;78.30;;;;;;5041664;28;19924;-57
2022/04/24 03:51:01;;;;;;;;;;;15.10;78.50;;;;;;5041561;28;19897;-57
2022/04/24 03:53:27;;;;;;;;;;;15.20;78.80;;;;;;5041394;28;19903;-56
2022/04/24 03:55:52;;;;;;;;;;;15.20;78.60;;;;;;5041407;28;19996;-57
2022/04/24 03:58:18;;;;;;;;;;;15.20;78.10;;;;;;5041403;28;19929;-58
2022/04/24 04:00:44;;;;;;;;;;;15.20;77.70;;;;;;5041348;28;19929;-57
2022/04/24 04:03:09;;;;;;;;;;;15.20;77.90;;;;;;5041303;28;19904;-57
2022/04/24 04:05:38;;;;;;;;;;;15.20;77.90;;;;;;5041207;28;19953;-57
2022/04/24 04:08:04;;;;;;;;;;;15.20;78.30;;;;;;5041346;28;19949;-58
2022/04/24 04:10:30;;;;;;;;;;;15.10;78.30;;;;;;5041306;28;19902;-57
2022/04/24 04:12:55;;;;;;;;;;;15.10;79.20;;;;;;5040922;28;19952;-56
2022/04/24 04:15:21;;;;;;;;;;;14.90;81.60;;;;;;5040782;28;19906;-56
2022/04/24 04:17:47;;;;;;;;;;;14.40;78.30;;;;;;5041016;28;19944;-56
2022/04/24 04:20:13;;;;;;;;;;;13.70;80.70;;;;;;5040877;28;19902;-57
2022/04/24 04:22:46;;;;;;;;;;;13.50;82.50;;;;;;5040614;28;19913;-57
2022/04/24 04:25:11;;;;;;;;;;;13.60;83.30;;;;;;5040536;28;19897;-57
2022/04/24 04:27:37;;;;;;;;;;;13.60;82.20;;;;;;5040808;28;19933;-57
2022/04/24 04:30:02;;;;;;;;;;;13.40;82.80;;;;;;5040738;28;19902;-56
2022/04/24 04:32:28;;;;;;;;;;;13.30;84.30;;;;;;5040486;28;19898;-57
2022/04/24 04:34:54;;;;;;;;;;;13.20;84.10;;;;;;5040625;28;19932;-56
2022/04/24 04:37:19;;;;;;;;;;;13.10;83.20;;;;;;5040704;28;19909;-55
2022/04/24 04:39:45;;;;;;;;;;;12.80;85.10;;;;;;5040643;28;19932;-58
2022/04/24 04:42:10;;;;;;;;;;;12.70;85.60;;;;;;5040349;28;19898;-57
2022/04/24 04:44:36;;;;;;;;;;;12.80;84.70;;;;;;5040553;28;19897;-57
2022/04/24 04:47:02;;;;;;;;;;;12.90;85.70;;;;;;5040604;28;19928;-57
2022/04/24 04:49:28;;;;;;;;;;;13.00;85.30;;;;;;5040471;28;19897;-56
2022/04/24 04:51:53;;;;;;;;;;;13.00;82.00;;;;;;5040321;28;19902;-56
2022/04/24 04:54:19;;;;;;;;;;;13.10;83.60;;;;;;5040336;28;19940;-57
2022/04/24 04:56:45;;;;;;;;;;;13.10;84.30;;;;;;5040379;28;19908;-58
2022/04/24 04:59:11;;;;;;;;;;;13.20;84.10;;;;;;5040294;28;19901;-57
2022/04/24 05:01:36;;;;;;;;;;;13.30;83.50;;;;;;5040270;28;20000;-56
2022/04/24 05:04:02;;;;;;;;;;;13.40;82.10;;;;;;5040345;28;19904;-57
2022/04/24 05:06:27;;;;;;;;;;;13.40;81.90;;;;;;5040206;28;19901;-56
2022/04/24 05:08:53;;;;;;;;;;;13.50;80.70;;;;;;5040259;28;19898;-56
2022/04/24 05:11:19;;;;;;;;;;;13.40;81.80;;;;;;5040124;28;19898;-56
2022/04/24 05:13:44;;;;;;;;;;;13.40;83.00;;;;;;5040211;28;19898;-57
2022/04/24 05:16:10;;;;;;;;;;;13.30;82.70;;;;;;5040054;28;19905;-57
2022/04/24 05:18:35;;;;;;;;;;;13.30;81.90;;;;;;5040070;28;19906;-57
2022/04/24 05:21:02;;;;;;;;;;;13.30;81.80;;;;;;5040051;28;19898;-56
2022/04/24 05:23:27;;;;;;;;;;;13.30;81.60;;;;;;5039809;28;19969;-58
2022/04/24 05:25:53;;;;;;;;;;;13.30;81.40;;;;;;5039809;28;19920;-57
2022/04/24 05:28:18;;;;;;;;;;;13.10;82.60;;;;;;5039938;28;19927;-56
2022/04/24 05:30:44;;;;;;;;;;;13.20;82.10;;;;;;5039888;28;19904;-57
2022/04/24 05:33:15;;;;;;;;;;;13.40;79.80;;;;;;5039791;28;19911;-56
2022/04/24 05:35:40;;;;;;;;;;;13.50;77.00;;;;;;5039507;28;19929;-57
2022/04/24 05:38:06;;;;;;;;;;;13.50;78.30;;;;;;5039207;28;19985;-56
2022/04/24 05:40:31;;;;;;;;;;;13.50;77.50;;;;;;5039629;28;19905;-57
2022/04/24 05:42:57;;;;;;;;;;;13.60;77.30;;;;;;5039496;28;19962;-57
2022/04/24 05:45:24;;;;;;;;;;;13.40;77.60;;;;;;5039514;28;19904;-56
2022/04/24 05:47:51;;;;;;;;;;;13.30;77.90;;;;;;5039615;28;19902;-57
2022/04/24 05:50:17;;;;;;;;;;;13.20;78.80;;;;;;5039359;28;19932;-56
2022/04/24 05:52:43;;;;;;;;;;;13.10;78.00;;;;;;5039142;28;19898;-56
2022/04/24 05:55:09;;;;;;;;;;;13.10;77.70;;;;;;5039081;28;19973;-57
2022/04/24 05:57:35;;;;;;;;;;;13.10;77.80;;;;;;5039213;28;19918;-56
2022/04/24 06:00:00;;;;;;;;;;;13.10;76.80;;;;;;5039232;28;19898;-58
2022/04/24 06:02:26;;;;;;;;;;;13.20;77.70;;;;;;5039201;28;19921;-56
2022/04/24 06:04:53;;;;;;;;;;;13.20;77.20;;;;;;5039360;28;19929;-56
2022/04/24 06:07:19;;;;;;;;;;;13.20;79.00;;;;;;5039288;28;19936;-57
2022/04/24 06:09:44;;;;;;;;;;;13.10;79.40;;;;;;5039177;28;19898;-57
2022/04/24 06:12:10;;;;;;;;;;;13.10;77.00;;;;;;5038968;28;19905;-58
2022/04/24 06:14:35;;;;;;;;;;;13.20;76.70;;;;;;5039067;28;19917;-57
2022/04/24 06:17:01;;;;;;;;;;;13.30;76.80;;;;;;5039127;28;19901;-57
2022/04/24 06:19:27;;;;;;;;;;;13.30;76.80;;;;;;5038967;28;19924;-57
2022/04/24 06:21:53;;;;;;;;;;;13.40;74.30;;;;;;5039024;28;19933;-55
2022/04/24 06:24:18;;;;;;;;;;;13.40;74.60;;;;;;5038992;28;19908;-57
2022/04/24 06:26:45;;;;;;;;;;;13.50;76.00;;;;;;5038944;28;19901;-58
2022/04/24 06:29:11;;;;;;;;;;;13.50;74.40;;;;;;5038763;28;19961;-57
2022/04/24 06:31:36;;;;;;;;;;;13.60;74.60;;;;;;5038146;28;19921;-58
2022/04/24 06:34:02;;;;;;;;;;;13.70;74.80;;;;;;5038609;28;19918;-58
2022/04/24 06:36:28;;;;;;;;;;;13.70;75.30;;;;;;5038777;28;19960;-58
2022/04/24 06:38:53;;;;;;;;;;;13.80;74.60;;;;;;5038534;28;19902;-56
2022/04/24 06:41:19;;;;;;;;;;;13.80;73.80;;;;;;5037986;28;19902;-57
2022/04/24 06:43:44;;;;;;;;;;;13.90;74.30;;;;;;5038177;28;19952;-58
2022/04/24 06:46:10;;;;;;;;;;;13.90;76.00;;;;;;5038088;28;19916;-58
2022/04/24 06:48:36;;;;;;;;;;;13.90;77.90;;;;;;5040271;28;19923;-59
2022/04/24 06:51:01;;;;;;;;;;;13.80;78.50;;;;;;5042053;28;19909;-59
2022/04/24 06:53:28;;;;;;;;;;;13.80;79.40;;;;;;5039124;28;19901;-57
2022/04/24 06:55:54;;;;;;;;;;;14.10;79.20;;;;;;5041880;28;19924;-57
2022/04/24 06:58:19;;;;;;;;;;;14.30;79.30;;;;;;5042279;28;19897;-59
2022/04/24 07:00:46;;;;;;;;;;;14.70;77.00;;;;;;5042378;28;19925;-58
2022/04/24 07:03:16;;;;;;;;;;;15.10;76.20;;;;;;5041502;28;19898;-58
2022/04/24 07:05:42;;;;;;;;;;;15.60;74.50;;;;;;5041408;28;19902;-56
2022/04/24 07:08:08;;;;;;;;;;;16.10;73.10;;;;;;5042028;28;19902;-59
2022/04/24 07:10:33;;;;;;;;;;;16.30;70.50;;;;;;5042126;28;19901;-59
2022/04/24 07:12:59;;;;;;;;;;;16.40;69.00;;;;;;5041970;28;19912;-61
2022/04/24 07:15:28;;;;;;;;;;;16.60;68.70;;;;;;5041567;28;19906;-60
2022/04/24 07:17:54;;;;;;;;;;;16.70;68.10;;;;;;5041684;28;19926;-60
2022/04/24 07:20:19;;;;;;;;;;;16.70;69.10;;;;;;5041461;28;19906;-59
2022/04/24 07:22:49;;;;;;;;;;;16.60;66.60;;;;;;5041295;28;19909;-60
2022/04/24 07:25:16;;;;;;;;;;;16.70;66.80;;;;;;5041597;28;19901;-57
2022/04/24 07:27:42;;;;;;;;;;;16.80;69.30;;;;;;5041730;28;19897;-58
2022/04/24 07:30:13;;;;;;;;;;;17.10;68.20;;;;;;5041534;28;19906;-60
2022/04/24 07:32:55;;;;;;;;;;;17.60;64.80;;;;;;5041433;28;19897;-60
2022/04/24 07:35:22;;;;;;;;;;;17.80;62.40;;;;;;5041327;28;19929;-59
2022/04/24 07:37:48;;;;;;;;;;;18.10;61.20;;;;;;5041434;28;19921;-61
2022/04/24 07:40:15;;;;;;;;;;;18.30;60.80;;;;;;5041455;28;19898;-60
2022/04/24 07:42:47;;;;;;;;;;;18.50;59.50;;;;;;5041269;28;19904;-59
2022/04/24 07:45:23;;;;;;;;;;;18.50;60.10;;;;;;5041314;28;19905;-58
2022/04/24 07:47:49;;;;;;;;;;;18.30;61.40;;;;;;5041206;28;19901;-56
2022/04/24 07:50:15;;;;;;;;;;;18.10;62.60;;;;;;5040975;28;19977;-56
2022/04/24 07:52:41;;;;;;;;;;;18.00;62.90;;;;;;5040930;28;19921;-57
2022/04/24 07:55:08;;;;;;;;;;;18.20;61.60;;;;;;5040852;28;19906;-58
2022/04/24 07:57:33;;;;;;;;;;;18.10;60.40;;;;;;5041001;28;19933;-57
2022/04/24 07:59:59;;;;;;;;;;;18.30;61.00;;;;;;5040173;28;19921;-58
2022/04/24 08:02:24;;;;;;;;;;;18.40;59.50;;;;;;5040770;28;19929;-58
2022/04/24 08:04:50;;;;;;;;;;;18.20;61.40;;;;;;5040849;28;19901;-55
2022/04/24 08:07:17;;;;;;;;;;;18.40;58.90;;;;;;5040856;28;19910;-55
2022/04/24 08:09:43;;;;;;;;;;;18.40;60.00;;;;;;5040671;28;19917;-56
2022/04/24 08:12:08;;;;;;;;;;;18.30;60.30;;;;;;5040614;28;19901;-58
2022/04/24 08:14:34;;;;;;;;;;;18.40;59.80;;;;;;5040725;28;19908;-59
2022/04/24 08:17:00;;;;;;;;;;;18.60;59.10;;;;;;5040710;28;19901;-58
2022/04/24 08:19:26;;;;;;;;;;;18.50;58.50;;;;;;5040700;28;19913;-58
2022/04/24 08:21:51;;;;;;;;;;;18.90;60.20;;;;;;5040589;28;19960;-57
2022/04/24 08:24:17;;;;;;;;;;;19.10;58.40;;;;;;5040596;28;19905;-58
2022/04/24 08:26:42;;;;;;;;;;;19.20;57.90;;;;;;5040475;28;19902;-58
2022/04/24 08:29:08;;;;;;;;;;;19.30;57.30;;;;;;5040467;28;19909;-58
2022/04/24 08:31:33;;;;;;;;;;;19.30;56.30;;;;;;5040410;28;19906;-57
2022/04/24 08:33:59;;;;;;;;;;;19.10;57.00;;;;;;5040450;28;19902;-57
2022/04/24 08:36:24;;;;;;;;;;;19.00;58.20;;;;;;5040369;28;19912;-58
2022/04/24 08:38:50;;;;;;;;;;;19.00;57.50;;;;;;5040414;28;19905;-57
2022/04/24 08:41:21;;;;;;;;;;;19.00;57.40;;;;;;5040195;28;19913;-56
2022/04/24 08:43:46;;;;;;;;;;;18.90;56.70;;;;;;5040148;28;19945;-57
2022/04/24 08:46:12;;;;;;;;;;;18.80;56.30;;;;;;5040139;28;19898;-58
2022/04/24 08:48:40;;;;;;;;;;;18.80;56.40;;;;;;5040117;28;19901;-57
2022/04/24 08:51:06;;;;;;;;;;;18.80;57.00;;;;;;5040049;28;19898;-59
2022/04/24 08:53:33;;;;;;;;;;;18.80;56.30;;;;;;5039937;28;19975;-56
2022/04/24 08:55:58;;;;;;;;;;;18.70;55.30;;;;;;5039557;28;19932;-57
2022/04/24 08:58:24;;;;;;;;;;;18.60;56.10;;;;;;5039325;28;19921;-56
2022/04/24 09:00:50;;;;;;;;;;;18.50;57.40;;;;;;5039753;28;19898;-55
2022/04/24 09:03:15;;;;;;;;;;;18.30;56.20;;;;;;5039710;28;19909;-56
2022/04/24 09:05:41;;;;;;;;;;;18.30;56.80;;;;;;5039968;28;19909;-57
2022/04/24 09:08:08;;;;;;;;;;;18.60;56.00;;;;;;5039819;28;19904;-57
2022/04/24 09:10:47;;;;;;;;;;;18.70;56.20;;;;;;5039463;28;19921;-57
2022/04/24 09:13:12;;;;;;;;;;;18.50;54.40;;;;;;5038926;28;19940;-56
2022/04/24 09:15:38;;;;;;;;;;;18.60;56.20;;;;;;5039503;28;19906;-58
2022/04/24 09:18:03;;;;;;;;;;;18.70;56.30;;;;;;5039466;28;19985;-56
2022/04/24 09:20:34;;;;;;;;;;;19.00;55.30;;;;;;5039368;28;19901;-59
2022/04/24 09:23:03;;;;;;;;;;;19.30;55.70;;;;;;5039159;28;19909;-56
2022/04/24 09:25:38;;;;;;;;;;;18.60;51.70;;;;;;5039352;28;19967;-56
2022/04/24 09:28:04;;;;;;;;;;;18.70;54.40;;;;;;5038439;28;19906;-56
2022/04/24 09:30:35;;;;;;;;;;;18.20;50.70;;;;;;5039289;28;19905;-56
2022/04/24 09:33:01;;;;;;;;;;;17.90;52.50;;;;;;5039219;28;19905;-56
2022/04/24 09:35:33;;;;;;;;;;;17.60;54.10;;;;;;5039301;28;19909;-57
2022/04/24 09:38:06;;;;;;;;;;;17.70;55.30;;;;;;5039430;28;19902;-57
2022/04/24 09:40:38;;;;;;;;;;;17.60;56.10;;;;;;5039257;28;19933;-58
2022/04/24 09:43:04;;;;;;;;;;;18.10;55.20;;;;;;5039183;28;19961;-57
2022/04/24 09:45:29;;;;;;;;;;;18.00;53.90;;;;;;5039251;28;19909;-57
2022/04/24 09:47:59;;;;;;;;;;;17.40;55.20;;;;;;5038955;28;19917;-56
2022/04/24 09:50:29;;;;;;;;;;;17.30;56.30;;;;;;5038736;28;19897;-58
2022/04/24 09:52:55;;;;;;;;;;;17.20;57.10;;;;;;5038628;28;19909;-57
2022/04/24 09:55:22;;;;;;;;;;;17.00;56.50;;;;;;5038748;28;19976;-58
2022/04/24 09:57:48;;;;;;;;;;;17.20;57.90;;;;;;5039114;28;19898;-58
2022/04/24 10:00:15;;;;;;;;;;;17.50;57.10;;;;;;5039351;28;19917;-58
2022/04/24 10:02:41;;;;;;;;;;;17.30;55.70;;;;;;5039068;28;19897;-58
2022/04/24 10:05:08;;;;;;;;;;;17.20;56.30;;;;;;5039181;28;19940;-59
2022/04/24 10:07:34;;;;;;;;;;;17.30;57.30;;;;;;5038899;28;19902;-58
2022/04/24 10:10:00;;;;;;;;;;;17.40;57.10;;;;;;5038995;28;19908;-58
2022/04/24 10:12:26;;;;;;;;;;;17.60;56.30;;;;;;5039050;28;19922;-58
2022/04/24 10:15:00;;;;;;;;;;;17.70;55.00;;;;;;5038954;28;19988;-58
2022/04/24 10:17:45;;;;;;;;;;;17.70;56.70;;;;;;5039131;28;19898;-58
2022/04/24 10:20:10;;;;;;;;;;;17.30;57.20;;;;;;5039032;28;19904;-57
2022/04/24 10:22:40;;;;;;;;;;;17.70;58.20;;;;;;5039295;28;19934;-57
2022/04/24 10:25:06;;;;;;;;;;;17.90;57.60;;;;;;5042968;28;19909;-59
2022/04/24 10:27:47;;;;;;;;;;;18.10;57.50;;;;;;5042863;28;19902;-56
2022/04/24 10:30:19;;;;;;;;;;;18.10;56.70;;;;;;5042984;28;19901;-57
2022/04/24 10:32:47;;;;;;;;;;;18.30;57.30;;;;;;5042819;28;19902;-56
2022/04/24 10:35:17;;;;;;;;;;;17.60;56.60;;;;;;5042695;28;19944;-57
2022/04/24 10:37:43;;;;;;;;;;;17.10;57.90;;;;;;5042771;28;19925;-57
2022/04/24 10:40:13;;;;;;;;;;;16.90;58.30;;;;;;5042678;28;19918;-57
2022/04/24 10:42:43;;;;;;;;;;;17.10;58.70;;;;;;5042630;28;19897;-58
2022/04/24 10:45:08;;;;;;;;;;;17.50;59.60;;;;;;5042389;28;19901;-60
2022/04/24 10:47:52;;;;;;;;;;;17.70;58.10;;;;;;5042443;28;19901;-56
2022/04/24 10:50:20;;;;;;;;;;;17.50;56.70;;;;;;5042591;28;19902;-58
2022/04/24 10:52:47;;;;;;;;;;;17.70;57.50;;;;;;5042265;28;19925;-57
2022/04/24 10:55:13;;;;;;;;;;;18.00;57.80;;;;;;5042311;28;19909;-59
2022/04/24 10:57:40;;;;;;;;;;;17.40;56.70;;;;;;5042440;28;19902;-57
2022/04/24 11:00:12;;;;;;;;;;;17.20;57.30;;;;;;5042356;28;19898;-58
2022/04/24 11:02:38;;;;;;;;;;;17.20;57.90;;;;;;5042160;28;19981;-57
2022/04/24 11:05:09;;;;;;;;;;;17.50;57.60;;;;;;5042426;28;19917;-56
2022/04/24 11:07:35;;;;;;;;;;;17.60;56.90;;;;;;5042147;28;19965;-58
2022/04/24 11:10:02;;;;;;;;;;;17.70;56.40;;;;;;5041970;28;19917;-58
2022/04/24 11:12:30;;;;;;;;;;;18.00;57.00;;;;;;5042135;28;19904;-57
2022/04/24 11:15:00;;;;;;;;;;;17.80;54.40;;;;;;5042056;28;19910;-57
2022/04/24 11:17:25;;;;;;;;;;;17.50;56.10;;;;;;5042026;28;19904;-58
2022/04/24 11:19:58;;;;;;;;;;;17.60;56.90;;;;;;5041913;28;19897;-59
2022/04/24 11:22:23;;;;;;;;;;;17.80;57.00;;;;;;5041460;28;19916;-56
2022/04/24 11:24:49;;;;;;;;;;;17.80;53.60;;;;;;5041889;28;19898;-57
2022/04/24 11:27:15;;;;;;;;;;;17.90;56.20;;;;;;5041409;28;19928;-57
2022/04/24 11:29:44;;;;;;;;;;;18.20;54.90;;;;;;5041694;28;19901;-56
2022/04/24 11:32:09;;;;;;;;;;;18.50;55.00;;;;;;5039476;28;19909;-55
2022/04/24 11:34:36;;;;;;;;;;;18.70;52.40;;;;;;5039532;28;19968;-59
2022/04/24 11:37:02;;;;;;;;;;;18.80;52.00;;;;;;5040731;28;19983;-56
2022/04/24 11:39:29;;;;;;;;;;;18.90;52.80;;;;;;5041021;28;19897;-55
2022/04/24 11:41:58;;;;;;;;;;;18.60;52.10;;;;;;5040788;28;19936;-55
2022/04/24 11:50:15;;;;;;;;;;;18.40;53.50;;;;;;5040765;28;19932;-54
2022/04/24 11:52:43;;;;;;;;;;;18.80;55.00;;;;;;5040515;28;19925;-56
2022/04/24 11:55:09;;;;;;;;;;;19.00;50.80;;;;;;5040542;28;19985;-54
2022/04/24 11:57:35;;;;;;;;;;;19.00;51.80;;;;;;5039701;28;19928;-55
2022/04/24 12:00:04;;;;;;;;;;;19.10;51.90;;;;;;5040524;28;19929;-57
2022/04/24 12:02:29;;;;;;;;;;;19.30;53.10;;;;;;5040421;28;19909;-61
2022/04/24 12:04:56;;;;;;;;;;;18.90;48.20;;;;;;5040533;28;19898;-58
2022/04/24 12:07:31;;;;;;;;;;;18.80;45.50;;;;;;5040330;28;19904;-58
2022/04/24 12:09:58;;;;;;;;;;;19.00;46.20;;;;;;5040204;28;19929;-58
2022/04/24 12:12:23;;;;;;;;;;;19.00;44.70;;;;;;5040198;28;19902;-57
2022/04/24 12:14:51;;;;;;;;;;;19.30;45.60;;;;;;5039904;28;19924;-56
2022/04/24 12:17:17;;;;;;;;;;;19.20;44.50;;;;;;5040162;28;19948;-56
2022/04/24 12:19:50;;;;;;;;;;;19.10;46.60;;;;;;5040005;28;19901;-56
2022/04/24 12:22:16;;;;;;;;;;;19.00;47.50;;;;;;5039872;28;19921;-58
2022/04/24 12:24:46;;;;;;;;;;;19.00;49.00;;;;;;5040158;28;19904;-59
2022/04/24 12:27:13;;;;;;;;;;;19.00;49.00;;;;;;5039911;28;19909;-59
2022/04/24 12:29:43;;;;;;;;;;;19.00;50.50;;;;;;5039888;28;19925;-60
2022/04/24 12:32:12;;;;;;;;;;;18.80;50.20;;;;;;5039701;28;19969;-61
2022/04/24 12:34:38;;;;;;;;;;;18.80;49.80;;;;;;5039607;28;19902;-58
2022/04/24 12:37:04;;;;;;;;;;;18.80;49.60;;;;;;5039747;28;19966;-56
2022/04/24 12:39:32;;;;;;;;;;;19.20;50.00;;;;;;5039675;28;19898;-60
2022/04/24 12:41:58;;;;;;;;;;;19.40;48.40;;;;;;5038962;28;19901;-58
2022/04/24 12:44:24;;;;;;;;;;;19.30;47.20;;;;;;5039588;28;19908;-59
2022/04/24 12:46:50;;;;;;;;;;;19.10;48.60;;;;;;5039516;28;19937;-56
2022/04/24 12:49:29;;;;;;;;;;;19.30;47.60;;;;;;5040062;28;19897;-55
2022/04/24 12:51:55;;;;;;;;;;;19.40;48.60;;;;;;5037703;28;19924;-56
2022/04/24 12:54:21;;;;;;;;;;;19.50;48.40;;;;;;5039369;28;19897;-55
2022/04/24 12:56:46;;;;;;;;;;;19.20;50.50;;;;;;5039420;28;19917;-57
2022/04/24 12:59:12;;;;;;;;;;;18.70;50.60;;;;;;5039371;28;19992;-55
2022/04/24 13:01:39;;;;;;;;;;;18.00;52.20;;;;;;5039165;28;19904;-58
2022/04/24 13:04:05;;;;;;;;;;;17.70;53.60;;;;;;5022403;28;19917;-57
2022/04/24 13:06:30;;;;;;;;;;;17.70;53.50;;;;;;5038555;28;19906;-57
2022/04/24 13:08:56;;;;;;;;;;;17.60;52.10;;;;;;5039056;28;19909;-57
2022/04/24 13:11:26;;;;;;;;;;;17.60;52.60;;;;;;5039115;28;19898;-56
2022/04/24 13:13:52;;;;;;;;;;;17.70;53.10;;;;;;5039210;28;19898;-57
2022/04/24 13:19:03;;;;;;;;;;;17.70;53.30;;;;;;5039080;28;19920;-56
2022/04/24 13:21:29;;;;;;;;;;;17.70;53.40;;;;;;5036570;28;19925;-57
2022/04/24 13:23:55;;;;;;;;;;;17.70;54.00;;;;;;5029795;28;19916;-58
2022/04/24 13:26:22;;;;;;;;;;;17.70;55.00;;;;;;5038584;28;19912;-58
2022/04/24 13:28:48;;;;;;;;;;;17.90;54.90;;;;;;5033492;28;19940;-58
2022/04/24 13:31:14;;;;;;;;;;;17.80;53.80;;;;;;5037845;28;19932;-56
2022/04/24 13:33:40;;;;;;;;;;;17.50;54.80;;;;;;5037746;28;19923;-57
2022/04/24 13:36:05;;;;;;;;;;;17.50;54.40;;;;;;5037704;28;19909;-58
2022/04/24 13:38:32;;;;;;;;;;;17.40;54.90;;;;;;5036688;28;19908;-56
2022/04/24 13:41:00;;;;;;;;;;;17.50;53.70;;;;;;5037942;28;19902;-59
2022/04/24 13:43:27;;;;;;;;;;;17.60;53.30;;;;;;5037074;28;19923;-55
2022/04/24 13:45:53;;;;;;;;;;;17.70;51.70;;;;;;5037468;28;20009;-56
2022/04/24 13:48:24;;;;;;;;;;;17.60;51.00;;;;;;5037721;28;19902;-57
2022/04/24 13:50:50;;;;;;;;;;;17.60;51.90;;;;;;5038329;28;19902;-56
2022/04/24 13:53:16;;;;;;;;;;;17.60;52.30;;;;;;5037841;28;19901;-56
2022/04/24 13:55:43;;;;;;;;;;;17.60;53.80;;;;;;5038021;28;19929;-57
2022/04/24 13:58:08;;;;;;;;;;;17.20;58.30;;;;;;5037742;28;19898;-56
2022/04/24 14:00:34;;;;;;;;;;;16.90;63.80;;;;;;5038078;28;19902;-55
2022/04/24 14:03:02;;;;;;;;;;;16.40;67.90;;;;;;5038158;28;19920;-55
2022/04/24 14:05:27;;;;;;;;;;;16.40;69.70;;;;;;5038151;28;19917;-54
2022/04/24 14:07:53;;;;;;;;;;;16.30;71.50;;;;;;5038424;28;19956;-55
2022/04/24 14:10:19;;;;;;;;;;;16.30;72.30;;;;;;5037897;28;19902;-58
2022/04/24 14:12:45;;;;;;;;;;;16.10;73.30;;;;;;5038339;28;19921;-55
2022/04/24 14:15:10;;;;;;;;;;;16.20;71.40;;;;;;5035683;28;19913;-56
2022/04/24 14:17:36;;;;;;;;;;;16.30;71.40;;;;;;5028273;28;19914;-58
2022/04/24 14:20:02;;;;;;;;;;;16.40;71.50;;;;;;5037518;28;19902;-56